sensor_id;sensor_type;location;lat;lon;timestamp;pressure;altitude;pressure_sealevel;temperature;humidity
70952;BME280;69214;55.880;37.542;2023-08-31T00:00:45;98822.06;;;13.39;74.34
70952;BME280;69214;55.880;37.542;2023-08-31T00:03:12;98814.91;;;13.33;74.39
70952;BME280;69214;55.880;37.542;2023-08-31T00:05:42;98822.06;;;13.39;73.99
70952;BME280;69214;55.880;37.542;2023-08-31T00:08:08;98816.31;;;13.41;74.06
70952;BME280;69214;55.880;37.542;2023-08-31T00:10:35;98820.13;;;13.40;73.83
70952;BME280;69214;55.880;37.542;2023-08-31T00:13:02;98817.91;;;13.32;73.63
70952;BME280;69214;55.880;37.542;2023-08-31T00:15:28;98834.94;;;13.39;74.63
70952;BME280;69214;55.880;37.542;2023-08-31T00:18:02;98833.28;;;13.38;74.47
70952;BME280;69214;55.880;37.542;2023-08-31T00:20:32;98826.97;;;13.37;75.12
70952;BME280;69214;55.880;37.542;2023-08-31T00:23:00;98833.81;;;13.35;74.66
70952;BME280;69214;55.880;37.542;2023-08-31T00:25:26;98831.59;;;13.32;75.39
70952;BME280;69214;55.880;37.542;2023-08-31T00:27:52;98809.31;;;13.18;75.25
70952;BME280;69214;55.880;37.542;2023-08-31T00:30:20;98823.31;;;13.21;75.53
70952;BME280;69214;55.880;37.542;2023-08-31T00:32:46;98823.63;;;13.25;75.23
70952;BME280;69214;55.880;37.542;2023-08-31T00:35:16;98827.44;;;13.24;75.38
70952;BME280;69214;55.880;37.542;2023-08-31T00:37:43;98818.03;;;13.15;75.77
70952;BME280;69214;55.880;37.542;2023-08-31T00:40:09;98814.47;;;13.14;75.50
70952;BME280;69214;55.880;37.542;2023-08-31T00:42:37;98831.81;;;13.20;75.22
70952;BME280;69214;55.880;37.542;2023-08-31T00:45:05;98830.41;;;13.17;76.30
70952;BME280;69214;55.880;37.542;2023-08-31T00:47:32;98831.75;;;13.15;75.74
70952;BME280;69214;55.880;37.542;2023-08-31T00:49:59;98835.31;;;13.15;76.44
70952;BME280;69214;55.880;37.542;2023-08-31T00:52:31;98811.66;;;13.04;76.48
70952;BME280;69214;55.880;37.542;2023-08-31T00:54:58;98833.09;;;13.12;76.50
70952;BME280;69214;55.880;37.542;2023-08-31T00:57:24;98821.25;;;13.02;76.14
70952;BME280;69214;55.880;37.542;2023-08-31T00:59:52;98837.75;;;13.12;76.13
70952;BME280;69214;55.880;37.542;2023-08-31T01:05:11;98834.47;;;13.15;74.62
70952;BME280;69214;55.880;37.542;2023-08-31T01:07:46;98832.88;;;13.19;75.73
70952;BME280;69214;55.880;37.542;2023-08-31T01:10:29;98842.22;;;13.23;74.57
70952;BME280;69214;55.880;37.542;2023-08-31T01:13:03;98829.63;;;13.22;74.77
70952;BME280;69214;55.880;37.542;2023-08-31T01:15:38;98815.66;;;13.23;75.29
70952;BME280;69214;55.880;37.542;2023-08-31T01:18:06;98819.50;;;13.22;76.02
70952;BME280;69214;55.880;37.542;2023-08-31T01:20:50;98828.59;;;13.33;74.70
70952;BME280;69214;55.880;37.542;2023-08-31T01:23:19;98825.28;;;13.31;75.89
70952;BME280;69214;55.880;37.542;2023-08-31T01:25:47;98822.81;;;13.29;75.85
70952;BME280;69214;55.880;37.542;2023-08-31T01:28:14;98817.59;;;13.28;76.32
70952;BME280;69214;55.880;37.542;2023-08-31T01:30:40;98831.31;;;13.28;75.87
70952;BME280;69214;55.880;37.542;2023-08-31T01:33:06;98822.22;;;13.22;76.43
70952;BME280;69214;55.880;37.542;2023-08-31T01:35:39;98819.22;;;13.24;75.43
70952;BME280;69214;55.880;37.542;2023-08-31T01:38:07;98817.03;;;13.26;76.25
70952;BME280;69214;55.880;37.542;2023-08-31T01:40:40;98828.81;;;13.21;75.67
70952;BME280;69214;55.880;37.542;2023-08-31T01:43:07;98809.31;;;13.18;76.07
70952;BME280;69214;55.880;37.542;2023-08-31T01:45:34;98803.03;;;13.17;76.08
70952;BME280;69214;55.880;37.542;2023-08-31T01:48:01;98823.63;;;13.25;76.45
70952;BME280;69214;55.880;37.542;2023-08-31T01:50:27;98822.22;;;13.22;76.17
70952;BME280;69214;55.880;37.542;2023-08-31T01:52:53;98825.78;;;13.23;76.82
70952;BME280;69214;55.880;37.542;2023-08-31T01:55:19;98818.09;;;13.20;76.35
70952;BME280;69214;55.880;37.542;2023-08-31T01:57:45;98815.38;;;13.20;76.69
70952;BME280;69214;55.880;37.542;2023-08-31T02:00:17;98819.13;;;13.14;75.84
70952;BME280;69214;55.880;37.542;2023-08-31T02:02:47;98827.47;;;13.29;76.07
70952;BME280;69214;55.880;37.542;2023-08-31T02:05:13;98826.16;;;13.37;75.73
70952;BME280;69214;55.880;37.542;2023-08-31T02:07:39;98821.81;;;13.46;76.24
70952;BME280;69214;55.880;37.542;2023-08-31T02:10:06;98807.28;;;13.45;75.69
70952;BME280;69214;55.880;37.542;2023-08-31T02:12:53;98823.50;;;13.57;76.33
70952;BME280;69214;55.880;37.542;2023-08-31T02:15:19;98813.63;;;13.56;74.86
70952;BME280;69214;55.880;37.542;2023-08-31T02:17:45;98821.88;;;13.61;74.89
70952;BME280;69214;55.880;37.542;2023-08-31T02:20:11;98810.06;;;13.50;75.70
70952;BME280;69214;55.880;37.542;2023-08-31T02:22:37;98815.56;;;13.55;76.75
70952;BME280;69214;55.880;37.542;2023-08-31T02:25:05;98815.00;;;13.53;76.05
70952;BME280;69214;55.880;37.542;2023-08-31T02:27:31;98820.47;;;13.53;75.65
70952;BME280;69214;55.880;37.542;2023-08-31T02:29:57;98808.66;;;13.48;75.76
70952;BME280;69214;55.880;37.542;2023-08-31T02:32:23;98831.72;;;13.52;75.30
70952;BME280;69214;55.880;37.542;2023-08-31T02:34:49;98812.75;;;13.40;76.41
70952;BME280;69214;55.880;37.542;2023-08-31T02:37:16;98825.69;;;13.50;75.75
70952;BME280;69214;55.880;37.542;2023-08-31T02:39:43;98815.47;;;13.40;76.15
70952;BME280;69214;55.880;37.542;2023-08-31T02:42:09;98824.56;;;13.46;75.46
70952;BME280;69214;55.880;37.542;2023-08-31T02:44:35;98816.88;;;13.43;76.25
70952;BME280;69214;55.880;37.542;2023-08-31T02:47:01;98817.13;;;13.41;75.56
70952;BME280;69214;55.880;37.542;2023-08-31T02:49:27;98822.06;;;13.39;75.95
70952;BME280;69214;55.880;37.542;2023-08-31T02:51:56;98823.16;;;13.43;76.16
70952;BME280;69214;55.880;37.542;2023-08-31T02:54:22;98819.34;;;13.44;76.00
70952;BME280;69214;55.880;37.542;2023-08-31T02:56:47;98830.34;;;13.49;75.79
70952;BME280;69214;55.880;37.542;2023-08-31T02:59:13;98819.38;;;13.54;75.64
70952;BME280;69214;55.880;37.542;2023-08-31T03:01:39;98815.28;;;13.57;75.73
70952;BME280;69214;55.880;37.542;2023-08-31T03:04:06;98820.56;;;13.69;76.35
70952;BME280;69214;55.880;37.542;2023-08-31T03:06:34;98815.66;;;13.81;74.78
70952;BME280;69214;55.880;37.542;2023-08-31T03:09:00;98811.88;;;13.92;75.54
70952;BME280;69214;55.880;37.542;2023-08-31T03:11:27;98798.16;;;13.97;74.80
70952;BME280;69214;55.880;37.542;2023-08-31T03:13:53;98803.97;;;14.11;75.16
70952;BME280;69214;55.880;37.542;2023-08-31T03:16:19;98796.28;;;14.18;74.58
70952;BME280;69214;55.880;37.542;2023-08-31T03:18:45;98783.13;;;14.20;74.87
70952;BME280;69214;55.880;37.542;2023-08-31T03:21:11;98802.06;;;14.32;74.31
70952;BME280;69214;55.880;37.542;2023-08-31T03:23:38;98805.09;;;14.40;73.96
70952;BME280;69214;55.880;37.542;2023-08-31T03:26:10;98808.16;;;14.49;74.01
70952;BME280;69214;55.880;37.542;2023-08-31T03:28:35;98821.34;;;14.57;74.24
70952;BME280;69214;55.880;37.542;2023-08-31T03:31:01;98806.53;;;14.63;74.06
70952;BME280;69214;55.880;37.542;2023-08-31T03:33:27;98806.81;;;14.72;74.02
70952;BME280;69214;55.880;37.542;2023-08-31T03:36:00;98796.66;;;14.77;73.35
70952;BME280;69214;55.880;37.542;2023-08-31T03:38:25;98812.56;;;14.85;73.79
70952;BME280;69214;55.880;37.542;2023-08-31T03:40:53;98818.06;;;14.85;73.35
70952;BME280;69214;55.880;37.542;2023-08-31T03:43:20;98820.81;;;14.90;73.67
70952;BME280;69214;55.880;37.542;2023-08-31T03:45:46;98819.16;;;14.95;73.57
70952;BME280;69214;55.880;37.542;2023-08-31T03:48:12;98823.00;;;14.99;73.62
70952;BME280;69214;55.880;37.542;2023-08-31T03:50:37;98826.84;;;15.08;73.19
70952;BME280;69214;55.880;37.542;2023-08-31T03:53:05;98826.84;;;15.13;72.87
70952;BME280;69214;55.880;37.542;2023-08-31T03:55:30;98825.44;;;15.26;72.77
70952;BME280;69214;55.880;37.542;2023-08-31T03:57:56;98824.59;;;15.35;72.62
70952;BME280;69214;55.880;37.542;2023-08-31T04:00:22;98830.03;;;15.61;72.11
70952;BME280;69214;55.880;37.542;2023-08-31T04:02:48;98832.13;;;15.89;71.08
70952;BME280;69214;55.880;37.542;2023-08-31T04:05:18;98822.97;;;15.99;70.82
70952;BME280;69214;55.880;37.542;2023-08-31T04:07:44;98832.03;;;16.04;70.54
70952;BME280;69214;55.880;37.542;2023-08-31T04:10:10;98829.00;;;16.06;70.73
70952;BME280;69214;55.880;37.542;2023-08-31T04:12:35;98821.63;;;15.96;70.51
70952;BME280;69214;55.880;37.542;2023-08-31T04:15:01;98835.59;;;16.10;70.80
70952;BME280;69214;55.880;37.542;2023-08-31T04:17:29;98817.38;;;16.19;70.02
70952;BME280;69214;55.880;37.542;2023-08-31T04:19:55;98831.19;;;16.53;69.62
70952;BME280;69214;55.880;37.542;2023-08-31T04:22:21;98835.34;;;16.90;69.08
70952;BME280;69214;55.880;37.542;2023-08-31T04:24:46;98828.41;;;17.26;67.60
70952;BME280;69214;55.880;37.542;2023-08-31T04:27:12;98836.94;;;17.54;67.13
70952;BME280;69214;55.880;37.542;2023-08-31T04:29:38;98841.16;;;17.75;66.31
70952;BME280;69214;55.880;37.542;2023-08-31T04:32:04;98845.72;;;17.85;66.08
70952;BME280;69214;55.880;37.542;2023-08-31T04:34:30;98846.25;;;17.87;65.92
70952;BME280;69214;55.880;37.542;2023-08-31T04:36:56;98841.56;;;17.87;66.01
70952;BME280;69214;55.880;37.542;2023-08-31T04:39:22;98839.84;;;17.91;65.82
70952;BME280;69214;55.880;37.542;2023-08-31T04:41:48;98845.31;;;17.96;66.01
70952;BME280;69214;55.880;37.542;2023-08-31T04:44:13;98840.47;;;18.07;65.31
70952;BME280;69214;55.880;37.542;2023-08-31T04:46:39;98846.84;;;18.26;64.81
70952;BME280;69214;55.880;37.542;2023-08-31T04:49:05;98842.09;;;18.51;64.27
70952;BME280;69214;55.880;37.542;2023-08-31T04:51:31;98843.31;;;18.63;64.37
70952;BME280;69214;55.880;37.542;2023-08-31T04:54:00;98849.56;;;18.69;64.06
70952;BME280;69214;55.880;37.542;2023-08-31T04:56:30;98845.09;;;18.73;64.68
70952;BME280;69214;55.880;37.542;2023-08-31T04:58:57;98840.38;;;18.73;63.37
70952;BME280;69214;55.880;37.542;2023-08-31T05:01:23;98837.41;;;18.70;64.05
70952;BME280;69214;55.880;37.542;2023-08-31T05:03:49;98835.75;;;18.69;63.88
70952;BME280;69214;55.880;37.542;2023-08-31T05:06:14;98834.72;;;18.65;64.40
70952;BME280;69214;55.880;37.542;2023-08-31T05:08:40;98839.13;;;18.66;64.23
70952;BME280;69214;55.880;37.542;2023-08-31T05:11:06;98838.44;;;18.74;64.03
70952;BME280;69214;55.880;37.542;2023-08-31T05:13:31;98836.69;;;18.97;63.67
70952;BME280;69214;55.880;37.542;2023-08-31T05:15:57;98837.66;;;19.52;62.45
70952;BME280;69214;55.880;37.542;2023-08-31T05:18:23;98837.81;;;20.96;58.90
70952;BME280;69214;55.880;37.542;2023-08-31T05:20:48;98855.94;;;22.09;55.97
70952;BME280;69214;55.880;37.542;2023-08-31T05:23:14;98848.53;;;22.61;54.40
70952;BME280;69214;55.880;37.542;2023-08-31T05:25:44;98845.56;;;22.75;56.60
70952;BME280;69214;55.880;37.542;2023-08-31T05:28:10;98845.28;;;22.94;53.39
70952;BME280;69214;55.880;37.542;2023-08-31T05:30:35;98842.94;;;23.31;52.92
70952;BME280;69214;55.880;37.542;2023-08-31T05:33:02;98847.97;;;25.02;50.61
70952;BME280;69214;55.880;37.542;2023-08-31T05:35:29;98851.44;;;27.58;44.80
70952;BME280;69214;55.880;37.542;2023-08-31T05:37:55;98854.00;;;29.96;40.17
70952;BME280;69214;55.880;37.542;2023-08-31T05:40:21;98856.03;;;32.09;37.56
70952;BME280;69214;55.880;37.542;2023-08-31T05:42:47;98850.97;;;33.85;33.79
70952;BME280;69214;55.880;37.542;2023-08-31T05:45:12;98854.41;;;35.35;31.39
70952;BME280;69214;55.880;37.542;2023-08-31T05:47:40;98845.59;;;36.40;35.14
70952;BME280;69214;55.880;37.542;2023-08-31T05:50:06;98853.59;;;37.27;28.87
70952;BME280;69214;55.880;37.542;2023-08-31T05:52:33;98872.47;;;37.75;27.90
70952;BME280;69214;55.880;37.542;2023-08-31T05:54:59;98876.19;;;37.72;27.10
70952;BME280;69214;55.880;37.542;2023-08-31T05:57:25;98878.59;;;38.01;30.11
70952;BME280;69214;55.880;37.542;2023-08-31T05:59:53;98888.50;;;38.70;26.02
70952;BME280;69214;55.880;37.542;2023-08-31T06:02:19;98881.09;;;39.35;25.62
70952;BME280;69214;55.880;37.542;2023-08-31T06:04:44;98874.56;;;38.95;25.15
70952;BME280;69214;55.880;37.542;2023-08-31T06:07:10;98856.25;;;37.72;27.02
70952;BME280;69214;55.880;37.542;2023-08-31T06:09:36;98874.53;;;37.07;27.40
70952;BME280;69214;55.880;37.542;2023-08-31T06:12:04;98869.44;;;37.28;29.12
70952;BME280;69214;55.880;37.542;2023-08-31T06:14:30;98881.69;;;37.86;26.22
70952;BME280;69214;55.880;37.542;2023-08-31T06:16:56;98880.41;;;38.18;25.85
70952;BME280;69214;55.880;37.542;2023-08-31T06:19:21;98889.28;;;38.47;25.98
70952;BME280;69214;55.880;37.542;2023-08-31T06:21:47;98881.06;;;37.72;26.42
70952;BME280;69214;55.880;37.542;2023-08-31T06:24:13;98883.09;;;36.65;27.08
70952;BME280;69214;55.880;37.542;2023-08-31T06:26:39;98883.59;;;35.35;28.62
70952;BME280;69214;55.880;37.542;2023-08-31T06:29:05;98886.16;;;34.77;30.23
70952;BME280;69214;55.880;37.542;2023-08-31T06:31:31;98882.69;;;35.56;29.17
70952;BME280;69214;55.880;37.542;2023-08-31T06:33:57;98884.25;;;36.72;27.30
70952;BME280;69214;55.880;37.542;2023-08-31T06:36:23;98885.84;;;37.48;28.13
70952;BME280;69214;55.880;37.542;2023-08-31T06:38:49;98886.41;;;38.23;25.32
70952;BME280;69214;55.880;37.542;2023-08-31T06:41:15;98880.34;;;37.95;25.53
70952;BME280;69214;55.880;37.542;2023-08-31T06:43:41;98884.63;;;37.15;26.72
70952;BME280;69214;55.880;37.542;2023-08-31T06:46:07;98877.66;;;35.85;27.76
70952;BME280;69214;55.880;37.542;2023-08-31T06:48:32;98886.56;;;34.79;29.26
70952;BME280;69214;55.880;37.542;2023-08-31T06:50:58;98897.94;;;34.50;29.67
70952;BME280;69214;55.880;37.542;2023-08-31T06:53:24;98904.75;;;35.02;29.69
70952;BME280;69214;55.880;37.542;2023-08-31T06:55:50;98885.22;;;35.36;28.56
70952;BME280;69214;55.880;37.542;2023-08-31T06:58:15;98892.81;;;35.57;28.29
70952;BME280;69214;55.880;37.542;2023-08-31T07:00:41;98889.63;;;35.48;28.33
70952;BME280;69214;55.880;37.542;2023-08-31T07:03:07;98888.59;;;33.93;29.89
70952;BME280;69214;55.880;37.542;2023-08-31T07:05:34;98896.97;;;32.30;32.61
70952;BME280;69214;55.880;37.542;2023-08-31T07:08:03;98891.97;;;30.78;33.83
70952;BME280;69214;55.880;37.542;2023-08-31T07:10:29;98899.84;;;29.36;36.42
70952;BME280;69214;55.880;37.542;2023-08-31T07:12:54;98898.13;;;28.26;38.18
70952;BME280;69214;55.880;37.542;2023-08-31T07:15:20;98891.94;;;27.73;38.85
70952;BME280;69214;55.880;37.542;2023-08-31T07:17:46;98893.88;;;27.29;39.85
70952;BME280;69214;55.880;37.542;2023-08-31T07:20:12;98879.19;;;27.20;39.96
70952;BME280;69214;55.880;37.542;2023-08-31T07:22:38;98875.50;;;28.34;38.80
70952;BME280;69214;55.880;37.542;2023-08-31T07:25:06;98875.81;;;29.57;36.27
70952;BME280;69214;55.880;37.542;2023-08-31T07:27:33;98883.94;;;29.62;35.50
70952;BME280;69214;55.880;37.542;2023-08-31T07:29:58;98876.41;;;29.09;37.39
70952;BME280;69214;55.880;37.542;2023-08-31T07:32:24;98884.69;;;29.40;37.29
70952;BME280;69214;55.880;37.542;2023-08-31T07:34:50;98875.16;;;30.33;35.14
70952;BME280;69214;55.880;37.542;2023-08-31T07:37:16;98880.09;;;31.59;33.99
70952;BME280;69214;55.880;37.542;2023-08-31T07:39:44;98864.78;;;32.41;34.27
70952;BME280;69214;55.880;37.542;2023-08-31T07:42:11;98866.25;;;33.63;30.56
70952;BME280;69214;55.880;37.542;2023-08-31T07:44:38;98887.78;;;34.70;29.74
70952;BME280;69214;55.880;37.542;2023-08-31T07:47:04;98882.34;;;35.40;28.74
70952;BME280;69214;55.880;37.542;2023-08-31T07:49:31;98876.59;;;35.54;28.82
70952;BME280;69214;55.880;37.542;2023-08-31T07:51:56;98887.38;;;34.90;28.52
70952;BME280;69214;55.880;37.542;2023-08-31T07:54:22;98885.38;;;34.19;29.84
70952;BME280;69214;55.880;37.542;2023-08-31T07:56:48;98895.06;;;33.93;29.93
70952;BME280;69214;55.880;37.542;2023-08-31T07:59:14;98884.84;;;33.64;30.30
70952;BME280;69214;55.880;37.542;2023-08-31T08:01:40;98890.88;;;33.48;29.99
70952;BME280;69214;55.880;37.542;2023-08-31T08:04:09;98888.53;;;32.88;30.63
70952;BME280;69214;55.880;37.542;2023-08-31T08:06:35;98885.47;;;32.52;31.19
70952;BME280;69214;55.880;37.542;2023-08-31T08:09:00;98876.44;;;32.33;31.42
70952;BME280;69214;55.880;37.542;2023-08-31T08:11:26;98864.78;;;31.94;31.96
70952;BME280;69214;55.880;37.542;2023-08-31T08:13:54;98873.72;;;31.29;33.37
70952;BME280;69214;55.880;37.542;2023-08-31T08:16:22;98868.38;;;30.60;34.04
70952;BME280;69214;55.880;37.542;2023-08-31T08:18:48;98866.34;;;29.88;35.10
70952;BME280;69214;55.880;37.542;2023-08-31T08:21:13;98867.53;;;29.07;36.73
70952;BME280;69214;55.880;37.542;2023-08-31T08:23:39;98875.03;;;28.48;37.55
70952;BME280;69214;55.880;37.542;2023-08-31T08:26:05;98865.53;;;28.05;38.39
70952;BME280;69214;55.880;37.542;2023-08-31T08:28:31;98849.97;;;27.92;38.67
70952;BME280;69214;55.880;37.542;2023-08-31T08:31:01;98851.22;;;27.95;38.75
70952;BME280;69214;55.880;37.542;2023-08-31T08:33:27;98866.41;;;27.62;38.71
70952;BME280;69214;55.880;37.542;2023-08-31T08:35:56;98857.44;;;27.01;39.91
70952;BME280;69214;55.880;37.542;2023-08-31T08:38:22;98859.19;;;26.41;40.73
70952;BME280;69214;55.880;37.542;2023-08-31T08:40:48;98852.31;;;25.90;41.46
70952;BME280;69214;55.880;37.542;2023-08-31T08:43:14;98863.50;;;25.44;43.01
70952;BME280;69214;55.880;37.542;2023-08-31T08:45:42;98857.09;;;25.11;42.92
70952;BME280;69214;55.880;37.542;2023-08-31T08:48:10;98861.66;;;24.74;44.17
70952;BME280;69214;55.880;37.542;2023-08-31T08:50:36;98865.38;;;24.57;44.54
70952;BME280;69214;55.880;37.542;2023-08-31T08:53:03;98873.41;;;24.59;44.32
70952;BME280;69214;55.880;37.542;2023-08-31T08:55:30;98858.91;;;24.44;44.51
70952;BME280;69214;55.880;37.542;2023-08-31T08:57:57;98866.84;;;24.34;44.65
70952;BME280;69214;55.880;37.542;2023-08-31T09:00:23;98878.81;;;24.34;44.60
70952;BME280;69214;55.880;37.542;2023-08-31T09:02:49;98869.91;;;24.41;44.46
70952;BME280;69214;55.880;37.542;2023-08-31T09:05:15;98870.19;;;24.48;44.11
70952;BME280;69214;55.880;37.542;2023-08-31T09:08:10;98872.44;;;24.54;43.22
70952;BME280;69214;55.880;37.542;2023-08-31T09:10:40;98870.81;;;24.53;43.42
70952;BME280;69214;55.880;37.542;2023-08-31T09:13:09;98864.63;;;24.48;43.63
70952;BME280;69214;55.880;37.542;2023-08-31T09:15:40;98873.66;;;24.45;43.46
70952;BME280;69214;55.880;37.542;2023-08-31T09:18:13;98889.16;;;24.34;43.26
70952;BME280;69214;55.880;37.542;2023-08-31T09:20:43;98875.66;;;24.06;44.06
70952;BME280;69214;55.880;37.542;2023-08-31T09:23:10;98854.31;;;23.72;45.32
70952;BME280;69214;55.880;37.542;2023-08-31T09:28:11;98882.69;;;23.66;45.83
70952;BME280;69214;55.880;37.542;2023-08-31T09:30:38;98860.91;;;23.50;46.01
70952;BME280;69214;55.880;37.542;2023-08-31T09:33:07;98883.31;;;23.71;45.89
70952;BME280;69214;55.880;37.542;2023-08-31T09:35:39;98879.72;;;23.71;45.92
70952;BME280;69214;55.880;37.542;2023-08-31T09:38:09;98875.16;;;23.66;46.03
70952;BME280;69214;55.880;37.542;2023-08-31T09:40:36;98864.69;;;23.54;46.84
70952;BME280;69214;55.880;37.542;2023-08-31T09:43:03;98875.81;;;23.46;47.60
70952;BME280;69214;55.880;37.542;2023-08-31T09:45:31;98880.59;;;23.37;47.74
70952;BME280;69214;55.880;37.542;2023-08-31T09:48:03;98881.25;;;23.34;47.25
70952;BME280;69214;55.880;37.542;2023-08-31T09:50:30;98875.19;;;23.32;47.70
70952;BME280;69214;55.880;37.542;2023-08-31T09:53:01;98876.84;;;23.33;47.32
70952;BME280;69214;55.880;37.542;2023-08-31T09:55:28;98872.09;;;23.33;48.43
70952;BME280;69214;55.880;37.542;2023-08-31T09:57:57;98870.75;;;23.39;47.66
70952;BME280;69214;55.880;37.542;2023-08-31T10:00:31;98868.31;;;23.55;46.98
70952;BME280;69214;55.880;37.542;2023-08-31T10:03:00;98867.75;;;23.70;47.02
70952;BME280;69214;55.880;37.542;2023-08-31T10:05:26;98858.09;;;23.68;46.90
70952;BME280;69214;55.880;37.542;2023-08-31T10:07:52;98861.53;;;23.73;47.52
70952;BME280;69214;55.880;37.542;2023-08-31T10:10:19;98863.97;;;23.75;46.91
70952;BME280;69214;55.880;37.542;2023-08-31T10:12:49;98860.22;;;23.71;46.46
70952;BME280;69214;55.880;37.542;2023-08-31T10:15:16;98858.25;;;23.71;46.77
70952;BME280;69214;55.880;37.542;2023-08-31T10:17:42;98858.41;;;23.75;45.83
70952;BME280;69214;55.880;37.542;2023-08-31T10:20:09;98858.41;;;23.75;46.44
70952;BME280;69214;55.880;37.542;2023-08-31T10:22:36;98854.84;;;23.66;46.09
70952;BME280;69214;55.880;37.542;2023-08-31T10:25:03;98861.38;;;23.70;46.29
70952;BME280;69214;55.880;37.542;2023-08-31T10:27:42;98859.22;;;23.75;46.34
70952;BME280;69214;55.880;37.542;2023-08-31T10:30:25;98854.91;;;23.86;46.09
70952;BME280;69214;55.880;37.542;2023-08-31T10:35:55;98856.00;;;24.03;45.95
70952;BME280;69214;55.880;37.542;2023-08-31T10:38:26;98857.97;;;24.02;46.04
70952;BME280;69214;55.880;37.542;2023-08-31T10:43:54;98849.41;;;24.07;45.83
70952;BME280;69214;55.880;37.542;2023-08-31T10:46:33;98851.03;;;24.08;45.41
70952;BME280;69214;55.880;37.542;2023-08-31T10:49:26;98860.38;;;24.12;45.78
70952;BME280;69214;55.880;37.542;2023-08-31T10:52:14;98856.75;;;24.12;45.85
70952;BME280;69214;55.880;37.542;2023-08-31T10:54:42;98844.75;;;24.20;45.72
70952;BME280;69214;55.880;37.542;2023-08-31T10:57:08;98858.13;;;24.35;45.21
70952;BME280;69214;55.880;37.542;2023-08-31T10:59:51;98853.19;;;24.41;45.30
70952;BME280;69214;55.880;37.542;2023-08-31T11:02:44;98850.38;;;24.41;45.05
70952;BME280;69214;55.880;37.542;2023-08-31T11:05:13;98848.63;;;24.36;43.28
70952;BME280;69214;55.880;37.542;2023-08-31T11:07:44;98849.09;;;24.38;44.47
70952;BME280;69214;55.880;37.542;2023-08-31T11:12:38;98852.03;;;24.42;45.00
70952;BME280;69214;55.880;37.542;2023-08-31T11:15:07;98836.97;;;24.34;44.33
70952;BME280;69214;55.880;37.542;2023-08-31T11:17:33;98840.03;;;24.41;44.53
70952;BME280;69214;55.880;37.542;2023-08-31T11:20:03;98828.88;;;24.41;44.99
70952;BME280;69214;55.880;37.542;2023-08-31T11:22:31;98828.34;;;24.48;44.38
70952;BME280;69214;55.880;37.542;2023-08-31T11:24:59;98836.53;;;24.53;44.78
70952;BME280;69214;55.880;37.542;2023-08-31T11:27:25;98838.28;;;24.58;44.51
70952;BME280;69214;55.880;37.542;2023-08-31T11:29:51;98840.53;;;24.64;42.01
70952;BME280;69214;55.880;37.542;2023-08-31T11:32:17;98834.56;;;24.74;41.76
70952;BME280;69214;55.880;37.542;2023-08-31T11:34:46;98828.47;;;24.93;42.77
70952;BME280;69214;55.880;37.542;2023-08-31T11:37:13;98823.44;;;25.07;42.29
70952;BME280;69214;55.880;37.542;2023-08-31T11:39:49;98824.56;;;25.27;42.61
70952;BME280;69214;55.880;37.542;2023-08-31T11:42:16;98831.81;;;25.40;40.07
70952;BME280;69214;55.880;37.542;2023-08-31T11:44:42;98823.34;;;25.49;40.46
70952;BME280;69214;55.880;37.542;2023-08-31T11:47:08;98825.56;;;25.56;39.92
70952;BME280;69214;55.880;37.542;2023-08-31T11:49:34;98812.66;;;25.63;40.54
70952;BME280;69214;55.880;37.542;2023-08-31T11:52:00;98793.09;;;25.63;40.63
70952;BME280;69214;55.880;37.542;2023-08-31T11:54:26;98810.84;;;25.79;40.17
70952;BME280;69214;55.880;37.542;2023-08-31T11:56:51;98810.25;;;25.86;39.93
70952;BME280;69214;55.880;37.542;2023-08-31T11:59:19;98807.34;;;25.83;39.74
70952;BME280;69214;55.880;37.542;2023-08-31T12:01:49;98809.31;;;25.82;41.21
70952;BME280;69214;55.880;37.542;2023-08-31T12:04:19;98808.50;;;25.81;39.76
70952;BME280;69214;55.880;37.542;2023-08-31T12:06:53;98795.47;;;25.86;41.25
70952;BME280;69214;55.880;37.542;2023-08-31T12:09:27;98790.00;;;25.89;40.69
70952;BME280;69214;55.880;37.542;2023-08-31T12:11:53;98787.66;;;25.91;40.75
70952;BME280;69214;55.880;37.542;2023-08-31T12:14:24;98786.97;;;25.82;42.00
70952;BME280;69214;55.880;37.542;2023-08-31T12:16:52;98786.25;;;25.73;41.79
70952;BME280;69214;55.880;37.542;2023-08-31T12:19:18;98789.84;;;25.61;41.68
70952;BME280;69214;55.880;37.542;2023-08-31T12:21:45;98785.84;;;25.50;40.88
70952;BME280;69214;55.880;37.542;2023-08-31T12:24:12;98787.81;;;25.37;39.94
70952;BME280;69214;55.880;37.542;2023-08-31T12:26:39;98788.38;;;25.31;40.51
70952;BME280;69214;55.880;37.542;2023-08-31T12:29:05;98774.50;;;25.22;41.00
70952;BME280;69214;55.880;37.542;2023-08-31T12:31:31;98789.78;;;25.37;40.98
70952;BME280;69214;55.880;37.542;2023-08-31T12:34:00;98785.03;;;25.37;40.69
70952;BME280;69214;55.880;37.542;2023-08-31T12:36:30;98789.81;;;25.49;40.91
70952;BME280;69214;55.880;37.542;2023-08-31T12:38:56;98787.72;;;25.58;40.54
70952;BME280;69214;55.880;37.542;2023-08-31T12:41:24;98786.59;;;25.71;40.50
70952;BME280;69214;55.880;37.542;2023-08-31T12:43:50;98782.88;;;25.79;40.56
70952;BME280;69214;55.880;37.542;2023-08-31T12:46:15;98776.13;;;25.80;40.79
70952;BME280;69214;55.880;37.542;2023-08-31T12:48:42;98783.94;;;25.75;41.50
70952;BME280;69214;55.880;37.542;2023-08-31T12:51:08;98780.03;;;25.55;41.64
70952;BME280;69214;55.880;37.542;2023-08-31T12:53:38;98772.59;;;25.47;42.58
70952;BME280;69214;55.880;37.542;2023-08-31T12:56:04;98777.09;;;25.39;42.25
70952;BME280;69214;55.880;37.542;2023-08-31T12:58:30;98762.44;;;25.30;42.76
70952;BME280;69214;55.880;37.542;2023-08-31T13:00:58;98763.72;;;25.33;43.02
70952;BME280;69214;55.880;37.542;2023-08-31T13:03:24;98752.41;;;25.29;43.03
70952;BME280;69214;55.880;37.542;2023-08-31T13:05:50;98761.72;;;25.21;42.88